Time;durP1;ratioP1;P1;durP2;ratioP2;P2;SDS_P1;SDS_P2;PMS_P1;PMS_P2;Temp;Humidity;BMP_temperature;BMP_pressure;BME280_temperature;BME280_humidity;BME280_pressure;Samples;Min_cycle;Max_cycle;Signal;HPM_P1;HPM_P2
2021/11/18 00:00:39;;;;;;;16.93;3.93;;;;;;;;;;4975742;28;23207;-80
2021/11/18 00:03:05;;;;;;;13.47;3.10;;;;;;;;;;4975144;28;20182;-81
2021/11/18 00:05:31;;;;;;;19.10;3.63;;;;;;;;;;4974685;28;20432;-80
2021/11/18 00:07:56;;;;;;;14.03;3.50;;;;;;;;;;4977288;28;20182;-80
2021/11/18 00:10:23;;;;;;;16.50;2.97;;;;;;;;;;4984407;28;20472;-80
2021/11/18 00:12:49;;;;;;;12.23;3.67;;;;;;;;;;4978795;28;20679;-79
2021/11/18 00:15:15;;;;;;;13.73;3.33;;;;;;;;;;4979335;28;20496;-80
2021/11/18 00:17:40;;;;;;;15.60;3.63;;;;;;;;;;4981428;28;20193;-79
2021/11/18 00:20:06;;;;;;;12.47;3.23;;;;;;;;;;4980170;28;20198;-80
2021/11/18 00:22:31;;;;;;;12.70;3.23;;;;;;;;;;4976310;28;20179;-79
2021/11/18 00:24:57;;;;;;;7.77;2.87;;;;;;;;;;4975421;28;20443;-80
2021/11/18 00:27:22;;;;;;;13.10;3.60;;;;;;;;;;4972086;28;20181;-80
2021/11/18 00:29:48;;;;;;;12.57;3.50;;;;;;;;;;4979004;28;20900;-80
2021/11/18 00:32:13;;;;;;;15.27;3.03;;;;;;;;;;4973654;28;20185;-80
2021/11/18 00:34:38;;;;;;;10.07;2.97;;;;;;;;;;4975850;28;20182;-80
2021/11/18 00:37:03;;;;;;;12.27;3.50;;;;;;;;;;4980738;28;20205;-80
2021/11/18 00:39:29;;;;;;;11.60;3.63;;;;;;;;;;4981222;28;20236;-81
2021/11/18 00:41:54;;;;;;;17.50;5.10;;;;;;;;;;4977235;28;20216;-81
2021/11/18 00:44:19;;;;;;;21.17;5.07;;;;;;;;;;4977993;28;20178;-80
2021/11/18 00:46:44;;;;;;;16.40;4.67;;;;;;;;;;4976280;28;20187;-80
2021/11/18 00:49:10;;;;;;;11.77;4.10;;;;;;;;;;4976083;28;20211;-79
2021/11/18 00:51:36;;;;;;;10.43;3.70;;;;;;;;;;4971771;28;20211;-80
2021/11/18 00:54:03;;;;;;;16.40;4.50;;;;;;;;;;4972988;28;20272;-80
2021/11/18 00:56:28;;;;;;;13.50;4.47;;;;;;;;;;4990403;28;20206;-80
2021/11/18 00:58:54;;;;;;;17.80;4.20;;;;;;;;;;4980420;28;20434;-80
2021/11/18 01:01:21;;;;;;;13.13;3.80;;;;;;;;;;4973847;28;20186;-80
2021/11/18 01:03:46;;;;;;;13.27;3.60;;;;;;;;;;4983282;28;20472;-80
2021/11/18 01:06:12;;;;;;;14.10;3.47;;;;;;;;;;4971789;28;20468;-80
2021/11/18 01:08:38;;;;;;;14.67;3.77;;;;;;;;;;4974520;28;20178;-81
2021/11/18 01:11:08;;;;;;;13.53;3.17;;;;;;;;;;4979464;28;20504;-78
2021/11/18 01:13:34;;;;;;;12.73;3.10;;;;;;;;;;4976182;28;20205;-80
2021/11/18 01:16:00;;;;;;;10.73;3.37;;;;;;;;;;4973489;28;20968;-80
2021/11/18 01:18:26;;;;;;;11.00;3.40;;;;;;;;;;4979376;28;20181;-81
2021/11/18 01:20:51;;;;;;;16.20;3.80;;;;;;;;;;4972145;28;20453;-80
2021/11/18 01:23:19;;;;;;;9.73;2.87;;;;;;;;;;4977713;28;20175;-80
2021/11/18 01:25:45;;;;;;;15.60;3.37;;;;;;;;;;4973339;28;20601;-80
2021/11/18 01:28:10;;;;;;;10.93;3.90;;;;;;;;;;4976523;28;20433;-81
2021/11/18 01:30:36;;;;;;;21.90;3.93;;;;;;;;;;4977857;28;20206;-80
2021/11/18 01:33:03;;;;;;;10.73;2.80;;;;;;;;;;4976761;28;20182;-80
2021/11/18 01:35:28;;;;;;;13.37;3.30;;;;;;;;;;4974668;28;20880;-80
2021/11/18 01:37:54;;;;;;;16.20;3.40;;;;;;;;;;4978797;28;20441;-81
2021/11/18 01:40:21;;;;;;;10.83;2.87;;;;;;;;;;4973139;28;20198;-80
2021/11/18 01:42:47;;;;;;;10.50;3.13;;;;;;;;;;4974415;28;20232;-80
2021/11/18 01:45:13;;;;;;;11.80;3.60;;;;;;;;;;4974315;28;20434;-80
2021/11/18 01:47:39;;;;;;;14.37;3.77;;;;;;;;;;4972269;28;20656;-79
2021/11/18 01:50:05;;;;;;;14.03;3.23;;;;;;;;;;4973477;28;20461;-80
2021/11/18 01:52:30;;;;;;;14.83;3.00;;;;;;;;;;4973393;28;20193;-79
2021/11/18 01:54:55;;;;;;;18.60;4.03;;;;;;;;;;4973013;28;20418;-79
2021/11/18 01:57:25;;;;;;;14.87;4.50;;;;;;;;;;4976927;28;20182;-80
2021/11/18 01:59:50;;;;;;;15.10;3.30;;;;;;;;;;4977697;28;20193;-80
2021/11/18 02:02:16;;;;;;;15.63;3.23;;;;;;;;;;4973948;28;20425;-79
2021/11/18 02:04:52;;;;;;;24.07;4.37;;;;;;;;;;4981345;28;20193;-79
2021/11/18 02:07:18;;;;;;;14.27;3.47;;;;;;;;;;4976697;28;23066;-80
2021/11/18 02:09:44;;;;;;;19.30;4.17;;;;;;;;;;4975971;28;20544;-80
2021/11/18 02:12:15;;;;;;;17.70;4.00;;;;;;;;;;4976792;28;20181;-80
2021/11/18 02:14:40;;;;;;;15.80;3.70;;;;;;;;;;4978426;28;20483;-79
2021/11/18 02:17:08;;;;;;;17.63;4.70;;;;;;;;;;4984440;28;20543;-81
2021/11/18 02:19:38;;;;;;;13.97;3.67;;;;;;;;;;4976451;28;20205;-81
2021/11/18 02:22:03;;;;;;;23.83;3.93;;;;;;;;;;4975843;28;20440;-80
2021/11/18 02:24:32;;;;;;;15.17;3.40;;;;;;;;;;4975933;28;20429;-81
2021/11/18 02:26:57;;;;;;;15.50;3.50;;;;;;;;;;4976060;28;26006;-81
2021/11/18 02:29:22;;;;;;;14.60;3.67;;;;;;;;;;4982388;28;20964;-81
2021/11/18 02:31:48;;;;;;;14.40;4.10;;;;;;;;;;4969352;28;20213;-79
2021/11/18 02:34:14;;;;;;;18.10;3.53;;;;;;;;;;4974343;28;20732;-80
2021/11/18 02:36:40;;;;;;;20.00;3.87;;;;;;;;;;4973920;28;20229;-80
2021/11/18 02:39:05;;;;;;;11.90;3.37;;;;;;;;;;4975580;28;20491;-80
2021/11/18 02:41:31;;;;;;;16.27;3.93;;;;;;;;;;4976954;28;20178;-78
2021/11/18 02:43:56;;;;;;;19.10;4.50;;;;;;;;;;4979774;28;20177;-80
2021/11/18 02:46:22;;;;;;;19.97;3.77;;;;;;;;;;4977783;28;20192;-80
2021/11/18 02:48:48;;;;;;;17.77;5.20;;;;;;;;;;4973688;28;20237;-79
2021/11/18 02:51:15;;;;;;;15.00;3.47;;;;;;;;;;4974299;28;20530;-79
2021/11/18 02:53:40;;;;;;;26.67;4.90;;;;;;;;;;4976832;28;20194;-79
2021/11/18 02:56:06;;;;;;;18.77;4.47;;;;;;;;;;4972592;28;20469;-80
2021/11/18 02:58:31;;;;;;;18.17;3.97;;;;;;;;;;4976708;28;20245;-80
2021/11/18 03:01:05;;;;;;;17.70;4.20;;;;;;;;;;4975236;28;20786;-80
2021/11/18 03:03:30;;;;;;;18.73;4.57;;;;;;;;;;4975105;28;20205;-80
2021/11/18 03:05:57;;;;;;;16.67;4.07;;;;;;;;;;4977953;28;20504;-78
2021/11/18 03:08:22;;;;;;;25.97;3.70;;;;;;;;;;4974553;28;20182;-80
2021/11/18 03:10:48;;;;;;;15.90;4.37;;;;;;;;;;4974834;28;20472;-80
2021/11/18 03:13:14;;;;;;;13.30;3.20;;;;;;;;;;4970964;28;20607;-79
2021/11/18 03:15:39;;;;;;;20.00;4.53;;;;;;;;;;4977277;28;20205;-78
2021/11/18 03:18:05;;;;;;;13.23;3.87;;;;;;;;;;4972563;28;20202;-80
2021/11/18 03:20:30;;;;;;;17.57;3.97;;;;;;;;;;4983177;28;20281;-80
2021/11/18 03:22:56;;;;;;;18.17;4.00;;;;;;;;;;4975209;28;20186;-80
2021/11/18 03:25:29;;;;;;;15.10;4.33;;;;;;;;;;4980239;28;20182;-80
2021/11/18 03:27:55;;;;;;;15.80;4.27;;;;;;;;;;4991146;28;20452;-79
2021/11/18 03:30:25;;;;;;;15.67;3.90;;;;;;;;;;4975104;28;20915;-80
2021/11/18 03:32:51;;;;;;;12.10;3.23;;;;;;;;;;4971696;28;20186;-79
2021/11/18 03:35:17;;;;;;;20.63;4.90;;;;;;;;;;4973884;28;20836;-80
2021/11/18 03:37:43;;;;;;;14.40;4.10;;;;;;;;;;4974698;28;20907;-79
2021/11/18 03:40:09;;;;;;;19.43;4.13;;;;;;;;;;4973432;28;20457;-79
2021/11/18 03:42:34;;;;;;;13.47;3.70;;;;;;;;;;4979923;28;20221;-80
2021/11/18 03:45:00;;;;;;;18.77;5.03;;;;;;;;;;4981930;28;20505;-79
2021/11/18 03:47:25;;;;;;;16.33;3.90;;;;;;;;;;4975714;28;20182;-81
2021/11/18 03:49:50;;;;;;;14.67;3.67;;;;;;;;;;4976540;28;20204;-79
2021/11/18 03:52:16;;;;;;;18.97;3.77;;;;;;;;;;4973577;28;20192;-80
2021/11/18 03:54:43;;;;;;;16.83;3.80;;;;;;;;;;4982352;28;20197;-80
2021/11/18 03:57:08;;;;;;;18.60;4.27;;;;;;;;;;4970879;28;20461;-80
2021/11/18 03:59:34;;;;;;;13.80;3.53;;;;;;;;;;4984553;28;21006;-81
2021/11/18 04:02:00;;;;;;;18.23;4.10;;;;;;;;;;4972504;28;20177;-79
2021/11/18 04:04:27;;;;;;;13.07;3.83;;;;;;;;;;4974158;28;20425;-81
2021/11/18 04:06:52;;;;;;;17.53;4.90;;;;;;;;;;4971640;28;20201;-80
2021/11/18 04:09:18;;;;;;;18.30;4.60;;;;;;;;;;4974887;28;20460;-80
2021/11/18 04:11:45;;;;;;;21.77;4.50;;;;;;;;;;4974268;28;20191;-80
2021/11/18 04:14:11;;;;;;;24.57;5.07;;;;;;;;;;4974200;28;20184;-80
2021/11/18 04:16:37;;;;;;;20.57;4.30;;;;;;;;;;4975809;28;20457;-80
2021/11/18 04:19:03;;;;;;;17.77;4.10;;;;;;;;;;4973408;28;20485;-80
2021/11/18 04:21:31;;;;;;;24.90;4.23;;;;;;;;;;4975523;28;20452;-81
2021/11/18 04:23:57;;;;;;;18.83;4.50;;;;;;;;;;4979274;28;20528;-80
2021/11/18 04:26:22;;;;;;;20.33;4.37;;;;;;;;;;4981187;28;20580;-81
2021/11/18 04:28:47;;;;;;;23.00;5.57;;;;;;;;;;4977220;28;20249;-81
2021/11/18 04:31:16;;;;;;;18.80;4.27;;;;;;;;;;4976655;28;20194;-80
2021/11/18 04:33:41;;;;;;;20.20;5.30;;;;;;;;;;4975863;28;20190;-81
2021/11/18 04:36:07;;;;;;;27.10;5.00;;;;;;;;;;4979555;28;20832;-80
2021/11/18 04:38:33;;;;;;;22.53;5.27;;;;;;;;;;4977806;28;20820;-80
2021/11/18 04:40:58;;;;;;;19.40;5.13;;;;;;;;;;4976089;28;20460;-80
2021/11/18 04:43:24;;;;;;;22.03;6.20;;;;;;;;;;4979170;28;20700;-80
2021/11/18 04:45:50;;;;;;;15.60;5.27;;;;;;;;;;4984910;28;20677;-80
2021/11/18 04:48:15;;;;;;;15.77;4.83;;;;;;;;;;4981151;28;20502;-80
2021/11/18 04:50:41;;;;;;;25.17;4.87;;;;;;;;;;4979201;28;20205;-80
2021/11/18 04:53:06;;;;;;;23.87;5.43;;;;;;;;;;4976904;28;20337;-80
2021/11/18 04:55:32;;;;;;;16.23;4.73;;;;;;;;;;4975761;28;20210;-80
2021/11/18 04:57:57;;;;;;;27.37;5.40;;;;;;;;;;4975944;28;20549;-80
2021/11/18 05:00:25;;;;;;;20.23;5.07;;;;;;;;;;4993008;28;20953;-81
2021/11/18 05:02:50;;;;;;;23.93;4.93;;;;;;;;;;4977720;28;20178;-79
2021/11/18 05:05:16;;;;;;;19.90;5.40;;;;;;;;;;4975972;28;20957;-80
2021/11/18 05:07:41;;;;;;;17.70;4.90;;;;;;;;;;4975624;28;20237;-80
2021/11/18 05:10:07;;;;;;;22.87;5.10;;;;;;;;;;4983110;28;20209;-79
2021/11/18 05:12:32;;;;;;;23.37;4.70;;;;;;;;;;4974756;28;20186;-79
2021/11/18 05:14:58;;;;;;;20.40;4.77;;;;;;;;;;4974470;28;20605;-80
2021/11/18 05:17:23;;;;;;;19.10;4.83;;;;;;;;;;4978407;28;20237;-79
2021/11/18 05:19:48;;;;;;;21.67;4.83;;;;;;;;;;4979711;28;20289;-78
2021/11/18 05:22:14;;;;;;;22.40;5.63;;;;;;;;;;4992604;28;20193;-79
2021/11/18 05:24:39;;;;;;;20.90;5.10;;;;;;;;;;4976019;28;20186;-80
2021/11/18 05:27:04;;;;;;;27.90;5.50;;;;;;;;;;4977292;28;20823;-79
2021/11/18 05:29:29;;;;;;;26.70;5.70;;;;;;;;;;4974424;28;20201;-79
2021/11/18 05:31:55;;;;;;;20.77;5.37;;;;;;;;;;4970892;28;20193;-79
2021/11/18 05:34:20;;;;;;;22.77;4.87;;;;;;;;;;4975469;28;20179;-79
2021/11/18 05:36:45;;;;;;;21.03;5.10;;;;;;;;;;4972172;28;20206;-79
2021/11/18 05:39:10;;;;;;;23.83;4.77;;;;;;;;;;4976743;28;20750;-81
2021/11/18 05:41:36;;;;;;;22.00;5.53;;;;;;;;;;4972082;28;20192;-80
2021/11/18 05:44:04;;;;;;;24.20;4.77;;;;;;;;;;4974694;28;20187;-78
2021/11/18 05:46:31;;;;;;;20.37;4.50;;;;;;;;;;4975974;28;20618;-79
2021/11/18 05:48:56;;;;;;;20.30;4.87;;;;;;;;;;4976066;28;20857;-80
2021/11/18 05:51:21;;;;;;;17.10;4.40;;;;;;;;;;4975783;28;20438;-78
2021/11/18 05:53:47;;;;;;;25.70;5.10;;;;;;;;;;4978188;28;20213;-77
2021/11/18 05:56:14;;;;;;;20.37;4.87;;;;;;;;;;4982484;28;20685;-78
2021/11/18 05:58:40;;;;;;;25.20;4.23;;;;;;;;;;4972634;28;20430;-78
2021/11/18 06:01:07;;;;;;;25.20;5.50;;;;;;;;;;4973832;28;20518;-76
2021/11/18 06:03:32;;;;;;;16.57;3.70;;;;;;;;;;4974276;28;20488;-78
2021/11/18 06:05:58;;;;;;;21.03;4.80;;;;;;;;;;4973797;28;20480;-78
2021/11/18 06:08:23;;;;;;;24.67;4.33;;;;;;;;;;4975669;28;20376;-78
2021/11/18 06:10:50;;;;;;;14.83;4.63;;;;;;;;;;4974928;28;20715;-78
2021/11/18 06:13:15;;;;;;;18.00;4.80;;;;;;;;;;4973085;28;20193;-79
2021/11/18 06:15:41;;;;;;;21.90;5.07;;;;;;;;;;4970994;28;20473;-79
2021/11/18 06:18:06;;;;;;;21.20;4.90;;;;;;;;;;4977239;28;20178;-80
2021/11/18 06:20:31;;;;;;;31.10;5.70;;;;;;;;;;4971048;28;20198;-79
2021/11/18 06:22:57;;;;;;;15.47;5.23;;;;;;;;;;4973892;28;20182;-79
2021/11/18 06:25:24;;;;;;;20.23;5.10;;;;;;;;;;4965857;28;20201;-78
2021/11/18 06:27:49;;;;;;;26.23;5.30;;;;;;;;;;4973066;28;20209;-81
2021/11/18 06:30:18;;;;;;;18.60;4.83;;;;;;;;;;4976345;28;20438;-79
2021/11/18 06:32:43;;;;;;;27.63;5.83;;;;;;;;;;4970371;28;21052;-79
2021/11/18 06:35:09;;;;;;;26.83;4.77;;;;;;;;;;4974150;28;20519;-81
2021/11/18 06:37:34;;;;;;;19.03;4.77;;;;;;;;;;4986188;28;20269;-82
2021/11/18 06:39:59;;;;;;;20.30;5.73;;;;;;;;;;4971853;28;20197;-77
2021/11/18 06:42:25;;;;;;;23.00;5.50;;;;;;;;;;4975482;28;20725;-80
2021/11/18 06:44:50;;;;;;;18.27;4.20;;;;;;;;;;4976473;28;20261;-80
2021/11/18 06:47:17;;;;;;;16.30;4.30;;;;;;;;;;4969991;28;20552;-80
2021/11/18 06:49:42;;;;;;;20.23;4.60;;;;;;;;;;4980431;28;20285;-78
2021/11/18 06:52:08;;;;;;;21.70;4.80;;;;;;;;;;4975315;28;20814;-79
2021/11/18 06:54:34;;;;;;;21.13;4.87;;;;;;;;;;4974169;28;20178;-78
2021/11/18 06:56:59;;;;;;;22.37;5.73;;;;;;;;;;4977504;28;20538;-77
2021/11/18 06:59:24;;;;;;;20.03;5.43;;;;;;;;;;4975579;28;20673;-81
2021/11/18 07:01:50;;;;;;;25.40;5.27;;;;;;;;;;4992145;28;20633;-81
2021/11/18 07:04:16;;;;;;;20.60;4.33;;;;;;;;;;4977089;28;20169;-80
2021/11/18 07:06:41;;;;;;;21.37;5.03;;;;;;;;;;4987584;28;20625;-78
2021/11/18 07:09:07;;;;;;;25.17;4.83;;;;;;;;;;4975730;28;20511;-80
2021/11/18 07:11:33;;;;;;;20.17;3.90;;;;;;;;;;4970272;28;20182;-81
2021/11/18 07:13:58;;;;;;;22.13;5.60;;;;;;;;;;4970241;28;20712;-80
2021/11/18 07:16:24;;;;;;;24.40;6.20;;;;;;;;;;4973272;28;20477;-79
2021/11/18 07:18:49;;;;;;;18.33;4.37;;;;;;;;;;4972090;28;20673;-81
2021/11/18 07:21:16;;;;;;;17.13;4.13;;;;;;;;;;4974026;28;21132;-78
2021/11/18 07:23:42;;;;;;;22.67;4.57;;;;;;;;;;4977775;28;20972;-78
2021/11/18 07:26:09;;;;;;;19.80;5.40;;;;;;;;;;4969231;28;20428;-80
2021/11/18 07:28:35;;;;;;;17.40;4.63;;;;;;;;;;4984123;28;20513;-80
2021/11/18 07:31:01;;;;;;;28.43;6.17;;;;;;;;;;4960558;28;20452;-80
2021/11/18 07:33:28;;;;;;;18.13;5.00;;;;;;;;;;4961868;28;20465;-80
2021/11/18 07:47:37;;;;;;;14.53;3.47;;;;;;;;;;5185210;23;20559;-69
2021/11/18 07:50:03;;;;;;;25.33;5.93;;;;;;;;;;4982294;28;20452;-68
2021/11/18 07:52:28;;;;;;;24.20;4.30;;;;;;;;;;4986657;28;20189;-69
2021/11/18 07:54:54;;;;;;;25.00;4.40;;;;;;;;;;4989538;28;20421;-69
2021/11/18 07:57:19;;;;;;;16.97;5.00;;;;;;;;;;4980718;28;20220;-69
2021/11/18 07:59:44;;;;;;;24.87;5.30;;;;;;;;;;4978274;28;20193;-69
2021/11/18 08:02:10;;;;;;;15.37;3.60;;;;;;;;;;4975382;28;20273;-68
2021/11/18 08:04:35;;;;;;;25.97;4.80;;;;;;;;;;4976904;28;20711;-69
2021/11/18 08:07:03;;;;;;;22.97;4.23;;;;;;;;;;4978061;28;20240;-67
2021/11/18 08:09:29;;;;;;;20.17;4.90;;;;;;;;;;4977442;28;20190;-69
2021/11/18 08:11:58;;;;;;;19.00;4.47;;;;;;;;;;4975241;28;20537;-70
2021/11/18 08:14:24;;;;;;;22.40;4.73;;;;;;;;;;4983132;28;20440;-69
2021/11/18 08:16:49;;;;;;;27.37;4.70;;;;;;;;;;4979879;28;21067;-69
2021/11/18 08:19:24;;;;;;;20.47;4.40;;;;;;;;;;4978676;28;21061;-69
2021/11/18 08:21:51;;;;;;;17.93;4.37;;;;;;;;;;4982155;28;20201;-69
2021/11/18 08:24:17;;;;;;;18.90;4.10;;;;;;;;;;4976950;28;21065;-69
2021/11/18 08:26:43;;;;;;;19.20;4.60;;;;;;;;;;4980731;28;20843;-69
2021/11/18 08:29:09;;;;;;;18.20;4.20;;;;;;;;;;4983905;28;20437;-68
2021/11/18 08:31:34;;;;;;;19.87;4.37;;;;;;;;;;4978713;28;20429;-68
2021/11/18 08:33:59;;;;;;;16.47;4.00;;;;;;;;;;4980509;28;20543;-69
2021/11/18 08:36:25;;;;;;;14.77;4.50;;;;;;;;;;4983497;28;20232;-69
2021/11/18 08:38:50;;;;;;;18.30;3.93;;;;;;;;;;4984726;28;20605;-69
2021/11/18 08:41:16;;;;;;;17.60;4.33;;;;;;;;;;4979638;28;20181;-69
2021/11/18 08:43:44;;;;;;;16.73;4.40;;;;;;;;;;4982637;28;20269;-68
2021/11/18 08:46:10;;;;;;;27.67;4.13;;;;;;;;;;4983768;28;20484;-69
2021/11/18 08:48:36;;;;;;;15.60;3.70;;;;;;;;;;4980755;28;20445;-69
2021/11/18 08:51:01;;;;;;;14.80;4.43;;;;;;;;;;4986272;28;20441;-68
2021/11/18 08:53:29;;;;;;;19.77;4.13;;;;;;;;;;4980469;28;20185;-69
2021/11/18 08:55:57;;;;;;;19.77;4.90;;;;;;;;;;4980856;28;20288;-69
2021/11/18 08:58:23;;;;;;;24.93;4.40;;;;;;;;;;4984481;28;20435;-68
2021/11/18 09:00:55;;;;;;;19.33;3.87;;;;;;;;;;4983703;28;20428;-69
2021/11/18 09:03:21;;;;;;;18.20;4.90;;;;;;;;;;4982263;28;20456;-68
2021/11/18 09:05:48;;;;;;;14.30;4.00;;;;;;;;;;4981488;28;20432;-68
2021/11/18 09:08:13;;;;;;;16.80;4.20;;;;;;;;;;4982443;28;20448;-68
2021/11/18 09:10:38;;;;;;;24.87;3.73;;;;;;;;;;4980701;28;20479;-68
2021/11/18 09:13:05;;;;;;;18.40;4.80;;;;;;;;;;4981678;28;20220;-68
2021/11/18 09:15:31;;;;;;;16.50;4.00;;;;;;;;;;4984687;28;20240;-69
2021/11/18 09:17:58;;;;;;;14.70;3.90;;;;;;;;;;4982146;28;20480;-68
2021/11/18 09:20:25;;;;;;;15.43;4.53;;;;;;;;;;4982437;28;20821;-68
2021/11/18 09:22:57;;;;;;;17.23;4.23;;;;;;;;;;4985411;28;20468;-68
2021/11/18 09:25:23;;;;;;;24.80;4.57;;;;;;;;;;4985711;28;20826;-68
2021/11/18 09:27:50;;;;;;;23.30;4.80;;;;;;;;;;4984193;28;20831;-68
2021/11/18 09:30:18;;;;;;;12.70;3.90;;;;;;;;;;4984427;28;20444;-69
2021/11/18 09:32:43;;;;;;;21.93;4.57;;;;;;;;;;4985262;28;20508;-68
2021/11/18 09:35:10;;;;;;;20.23;4.70;;;;;;;;;;4983552;28;20523;-68
2021/11/18 09:37:35;;;;;;;17.97;5.10;;;;;;;;;;4983545;28;20228;-68
2021/11/18 09:40:02;;;;;;;16.73;4.20;;;;;;;;;;4985686;28;20511;-68
2021/11/18 09:42:30;;;;;;;22.33;4.80;;;;;;;;;;4984340;28;20574;-68
2021/11/18 09:45:07;;;;;;;18.40;4.93;;;;;;;;;;4985914;28;20914;-68
2021/11/18 09:48:02;;;;;;;19.07;4.50;;;;;;;;;;4984800;28;20515;-68
2021/11/18 09:50:47;;;;;;;15.83;4.47;;;;;;;;;;4931372;28;20503;-68
2021/11/18 09:53:12;;;;;;;17.60;5.20;;;;;;;;;;4984723;28;20428;-68
2021/11/18 09:55:55;;;;;;;20.13;4.57;;;;;;;;;;4985433;28;20863;-68
2021/11/18 09:58:26;;;;;;;18.20;3.90;;;;;;;;;;4980686;28;20268;-68
2021/11/18 10:00:51;;;;;;;14.90;4.70;;;;;;;;;;4980494;28;20433;-67
2021/11/18 10:03:45;;;;;;;13.20;3.13;;;;;;;;;;4978319;28;20483;-68
2021/11/18 10:06:13;;;;;;;18.27;3.60;;;;;;;;;;4913899;28;20244;-68
2021/11/18 10:08:53;;;;;;;18.50;3.43;;;;;;;;;;4983280;28;20417;-69
2021/11/18 10:11:37;;;;;;;18.63;4.80;;;;;;;;;;4980554;28;20539;-68
2021/11/18 10:14:02;;;;;;;19.63;4.63;;;;;;;;;;4979533;28;20743;-68
2021/11/18 10:16:31;;;;;;;13.40;4.20;;;;;;;;;;4982500;28;20957;-66
2021/11/18 10:19:02;;;;;;;17.60;4.40;;;;;;;;;;4979611;28;20228;-67
2021/11/18 10:21:29;;;;;;;23.53;4.20;;;;;;;;;;4980156;28;20452;-66
2021/11/18 10:23:59;;;;;;;23.10;5.23;;;;;;;;;;4979131;28;20440;-69
2021/11/18 10:26:30;;;;;;;17.63;4.77;;;;;;;;;;4979508;28;20503;-67
2021/11/18 10:29:01;;;;;;;22.40;4.53;;;;;;;;;;4978976;28;20431;-68
2021/11/18 10:31:49;;;;;;;18.47;4.70;;;;;;;;;;4980742;28;20441;-68
2021/11/18 10:34:22;;;;;;;14.93;3.93;;;;;;;;;;4979800;28;20864;-68
2021/11/18 10:36:53;;;;;;;15.17;3.47;;;;;;;;;;4978383;28;20840;-67
2021/11/18 10:39:38;;;;;;;19.40;4.67;;;;;;;;;;4981985;28;20429;-66
2021/11/18 10:42:09;;;;;;;18.43;4.20;;;;;;;;;;4970532;28;20420;-67
2021/11/18 10:45:03;;;;;;;14.03;3.93;;;;;;;;;;4980044;28;20832;-67
2021/11/18 10:47:38;;;;;;;16.93;4.20;;;;;;;;;;4956977;28;20504;-67
2021/11/18 10:50:09;;;;;;;24.87;5.17;;;;;;;;;;4978335;28;20930;-67
2021/11/18 10:52:35;;;;;;;22.00;4.57;;;;;;;;;;4977807;28;20652;-68
2021/11/18 10:55:06;;;;;;;12.37;3.40;;;;;;;;;;4981871;28;20424;-68
2021/11/18 10:57:32;;;;;;;11.93;3.47;;;;;;;;;;4982216;28;20229;-68
2021/11/18 11:00:29;;;;;;;21.50;4.20;;;;;;;;;;4979277;28;20443;-68
2021/11/18 11:02:55;;;;;;;24.93;4.40;;;;;;;;;;4945473;28;20441;-68
2021/11/18 11:05:32;;;;;;;13.30;4.50;;;;;;;;;;4974612;28;20440;-67
2021/11/18 11:07:59;;;;;;;19.53;3.80;;;;;;;;;;4980567;28;20211;-67
2021/11/18 11:10:25;;;;;;;26.83;5.50;;;;;;;;;;4980176;28;20893;-68
2021/11/18 11:13:02;;;;;;;16.17;4.20;;;;;;;;;;4974719;28;20463;-68
2021/11/18 11:15:46;;;;;;;28.63;5.30;;;;;;;;;;4973298;28;20444;-69
2021/11/18 11:18:30;;;;;;;16.57;4.47;;;;;;;;;;4979050;28;20947;-68
2021/11/18 11:20:55;;;;;;;21.37;4.90;;;;;;;;;;4972314;28;20432;-67
2021/11/18 11:23:23;;;;;;;16.00;4.20;;;;;;;;;;4973397;28;20511;-67
2021/11/18 11:25:57;;;;;;;18.80;4.40;;;;;;;;;;4976422;28;20189;-67
2021/11/18 11:28:22;;;;;;;16.17;3.77;;;;;;;;;;4980387;28;20433;-68
2021/11/18 11:30:47;;;;;;;16.07;4.17;;;;;;;;;;4977818;28;20445;-67
2021/11/18 11:33:17;;;;;;;14.30;3.30;;;;;;;;;;4979787;28;20787;-67
2021/11/18 11:35:48;;;;;;;14.47;3.00;;;;;;;;;;4986357;28;20720;-68
2021/11/18 11:38:25;;;;;;;16.33;3.93;;;;;;;;;;4984953;28;21797;-67
2021/11/18 11:40:55;;;;;;;17.87;4.20;;;;;;;;;;4983398;28;20483;-67
2021/11/18 11:43:20;;;;;;;19.47;4.60;;;;;;;;;;4976390;28;20424;-67
2021/11/18 11:45:48;;;;;;;16.20;3.67;;;;;;;;;;4981090;28;20522;-68
2021/11/18 11:48:22;;;;;;;21.67;4.40;;;;;;;;;;4984709;28;20807;-68
2021/11/18 11:51:06;;;;;;;18.33;4.03;;;;;;;;;;4984185;28;20421;-68
2021/11/18 11:53:35;;;;;;;23.57;4.37;;;;;;;;;;4984828;28;20491;-68
2021/11/18 11:56:06;;;;;;;14.43;3.43;;;;;;;;;;4984221;28;20522;-67
2021/11/18 11:58:36;;;;;;;14.93;3.77;;;;;;;;;;4980465;28;20417;-67
2021/11/18 12:01:10;;;;;;;22.30;3.67;;;;;;;;;;4982297;28;20520;-68
2021/11/18 12:04:08;;;;;;;22.87;5.23;;;;;;;;;;4984291;28;20508;-69
2021/11/18 12:06:46;;;;;;;21.17;4.30;;;;;;;;;;4951044;28;20595;-68
2021/11/18 12:09:20;;;;;;;12.90;3.37;;;;;;;;;;4982868;28;20424;-68
2021/11/18 12:12:10;;;;;;;20.10;4.40;;;;;;;;;;4979096;28;21446;-68
2021/11/18 12:14:37;;;;;;;16.80;4.07;;;;;;;;;;4979721;28;20460;-68
2021/11/18 12:17:06;;;;;;;20.03;4.70;;;;;;;;;;4979359;28;21076;-68
2021/11/18 12:19:31;;;;;;;22.17;4.60;;;;;;;;;;4978869;28;20926;-68
2021/11/18 12:21:58;;;;;;;21.80;4.30;;;;;;;;;;4980095;28;20432;-68
2021/11/18 12:24:24;;;;;;;25.40;5.03;;;;;;;;;;4979548;28;21375;-69
2021/11/18 12:26:55;;;;;;;22.33;4.03;;;;;;;;;;4981501;28;20456;-68
2021/11/18 12:29:20;;;;;;;15.83;3.53;;;;;;;;;;4981569;28;20433;-68
2021/11/18 12:32:01;;;;;;;26.03;4.60;;;;;;;;;;4978627;28;20440;-68
2021/11/18 12:34:45;;;;;;;15.33;4.27;;;;;;;;;;4983013;28;20221;-67
2021/11/18 12:37:16;;;;;;;20.00;4.60;;;;;;;;;;4983511;28;21053;-68
2021/11/18 12:39:47;;;;;;;15.20;4.17;;;;;;;;;;4984048;28;20507;-68
2021/11/18 12:42:26;;;;;;;15.80;4.83;;;;;;;;;;4984773;28;20464;-67
2021/11/18 12:44:54;;;;;;;17.00;3.27;;;;;;;;;;4983337;28;20499;-67
2021/11/18 12:47:39;;;;;;;17.27;3.90;;;;;;;;;;4983669;28;20459;-67
2021/11/18 12:50:23;;;;;;;19.90;3.80;;;;;;;;;;4981010;28;20488;-67
2021/11/18 12:53:07;;;;;;;22.07;4.40;;;;;;;;;;4979656;28;20472;-67
2021/11/18 12:55:38;;;;;;;16.27;4.03;;;;;;;;;;4982660;28;20484;-67
2021/11/18 12:58:22;;;;;;;16.80;4.13;;;;;;;;;;4983497;28;20425;-67
2021/11/18 13:00:55;;;;;;;14.73;3.73;;;;;;;;;;4984172;28;20862;-67
2021/11/18 13:03:39;;;;;;;19.13;4.10;;;;;;;;;;4982927;28;20475;-67
2021/11/18 13:06:05;;;;;;;13.70;3.47;;;;;;;;;;4980490;28;20456;-66
2021/11/18 13:08:30;;;;;;;15.37;3.63;;;;;;;;;;4980021;28;20432;-67
2021/11/18 13:11:16;;;;;;;21.03;4.50;;;;;;;;;;4981711;28;20477;-67
2021/11/18 13:13:42;;;;;;;25.00;4.70;;;;;;;;;;4986030;28;20190;-67
2021/11/18 13:16:26;;;;;;;20.67;4.60;;;;;;;;;;4981916;28;20476;-67
2021/11/18 13:19:22;;;;;;;23.43;4.00;;;;;;;;;;4983223;28;20515;-67
2021/11/18 13:22:06;;;;;;;18.27;4.00;;;;;;;;;;4982278;28;20449;-66
2021/11/18 13:24:41;;;;;;;16.60;3.50;;;;;;;;;;4978433;28;20515;-68
2021/11/18 13:27:10;;;;;;;23.17;4.00;;;;;;;;;;4982108;28;20585;-67
2021/11/18 13:29:42;;;;;;;19.57;4.23;;;;;;;;;;4985057;28;20476;-67
2021/11/18 13:32:09;;;;;;;12.87;3.27;;;;;;;;;;4978706;28;20977;-67
2021/11/18 13:34:51;;;;;;;19.97;4.30;;;;;;;;;;4983702;28;20444;-67
2021/11/18 13:37:19;;;;;;;17.23;4.60;;;;;;;;;;4975652;28;20990;-68
2021/11/18 13:39:44;;;;;;;23.00;3.77;;;;;;;;;;4981066;28;21804;-67
2021/11/18 13:42:16;;;;;;;17.07;4.10;;;;;;;;;;4983982;28;20468;-67
2021/11/18 13:44:42;;;;;;;16.80;3.87;;;;;;;;;;4975837;28;20194;-68
2021/11/18 13:47:15;;;;;;;20.90;4.43;;;;;;;;;;4972113;28;20828;-67
2021/11/18 13:49:46;;;;;;;20.77;5.37;;;;;;;;;;4980349;28;20441;-68
2021/11/18 13:52:32;;;;;;;22.33;5.17;;;;;;;;;;4980834;28;20433;-67
2021/11/18 13:55:09;;;;;;;23.87;4.80;;;;;;;;;;4983680;28;20468;-67
2021/11/18 13:57:42;;;;;;;18.13;4.20;;;;;;;;;;4980435;28;21017;-67
2021/11/18 14:00:13;;;;;;;23.17;4.50;;;;;;;;;;4981839;28;20436;-67
2021/11/18 14:02:38;;;;;;;19.20;4.60;;;;;;;;;;4978248;28;20510;-67
2021/11/18 14:05:06;;;;;;;17.20;4.27;;;;;;;;;;4981632;28;20436;-67
2021/11/18 14:07:35;;;;;;;29.77;5.23;;;;;;;;;;4982543;28;20212;-67
2021/11/18 14:10:11;;;;;;;24.13;3.97;;;;;;;;;;4981560;28;20919;-68
2021/11/18 14:12:36;;;;;;;24.73;5.63;;;;;;;;;;4975142;28;20460;-67
2021/11/18 14:15:20;;;;;;;17.80;4.60;;;;;;;;;;4981839;28;20452;-67
2021/11/18 14:18:01;;;;;;;18.80;5.13;;;;;;;;;;4977292;28;20205;-67
2021/11/18 14:20:29;;;;;;;20.40;6.73;;;;;;;;;;4984716;28;21030;-67
2021/11/18 14:23:08;;;;;;;24.17;9.70;;;;;;;;;;4978348;28;20479;-67
2021/11/18 14:25:36;;;;;;;27.97;12.10;;;;;;;;;;4980987;28;20866;-68
2021/11/18 14:28:04;;;;;;;29.20;11.93;;;;;;;;;;4982517;28;21269;-67
2021/11/18 14:30:35;;;;;;;26.23;11.47;;;;;;;;;;4973976;28;20443;-67
2021/11/18 14:33:05;;;;;;;29.73;11.40;;;;;;;;;;4981594;28;20974;-67
2021/11/18 14:35:33;;;;;;;23.27;9.23;;;;;;;;;;4982186;28;20461;-67
2021/11/18 14:38:00;;;;;;;28.27;7.80;;;;;;;;;;4978412;28;21782;-67
2021/11/18 14:40:28;;;;;;;23.57;7.10;;;;;;;;;;4981503;28;20432;-68
2021/11/18 14:43:12;;;;;;;20.67;6.90;;;;;;;;;;4982134;28;20507;-67
2021/11/18 14:45:39;;;;;;;19.97;6.63;;;;;;;;;;4980224;28;20432;-67
2021/11/18 14:48:25;;;;;;;23.70;6.33;;;;;;;;;;4981404;28;20437;-66
2021/11/18 14:50:57;;;;;;;23.90;7.60;;;;;;;;;;4978397;28;20626;-65